Fairfield, Pennsylvania
Current Conditions -  °F | °C
As of 1:53 AM on Saturday 29 Nov 2014 (Local Time) from KRYT Reporting Station
Broken Clouds Broken Clouds  
Wind Chill: 24°   Ceiling: 11000
Heat Index: 24°   Visibility: 10mi
Dew Point: 18°   Wind: 0mph
Humidity: 77%   Direction: NA
Pressure: 30.24"   Gusts: NA
Location:  39.79°N, 77.37°W
Report Text: KRYT 290653Z AUTO 00000KT 10SM SCT080 BKN110 M04/M08 A3024 RMK AO2 SLP258 T10441078 $
Loading
Personal Weather Stations






























Interactive Weather Map New forecast layout! Learn more

10-Day Weather Forecast

Advertisements
Track Severe Weather on mobile